Data for 07/18/2015

Time Sea-Level Adjusted Pressure Absolute Pressure Temperature Relative Humidity Dew Point   
(mb) (inHg) (mb) (inHg) (C) (F) (%) (C) (F)
00:05 1021 30.15 850 25.1 12.5 54.6 51 2.7 36.8
00:10 1021 30.15 850 25.1 12.5 54.5 51 2.8 37.1
00:15 1021 30.15 850 25.1 12.4 54.3 52 2.8 37
00:20 1021 30.15 850 25.1 12.3 54.1 53 3 37.4
00:25 1021 30.15 850 25.1 12.1 53.8 53 2.9 37.2
00:30 1021 30.15 850 25.1 12 53.6 53 2.9 37.2
00:35 1021 30.15 850 25.1 11.9 53.4 54 2.9 37.3
00:40 1021 30.15 850 25.1 11.7 53.1 55 3.2 37.7
00:45 1021 30.15 850 25.1 11.6 52.8 56 3.1 37.5
00:50 1021 30.15 850 25.1 11.5 52.8 56 3.2 37.8
00:55 1021 30.15 850 25.1 11.6 52.8 57 3.3 38
01:00 1021 30.15 851 25.13 11.5 52.8 57 3.4 38.1
01:05 1021 30.15 851 25.13 11.6 52.9 56 3.2 37.8
01:10 1021 30.15 851 25.13 11.8 53.2 55 3.1 37.6
01:15 1021 30.15 850 25.1 12 53.6 55 3.2 37.8
01:20 1021 30.15 851 25.13 12.1 53.8 55 3.3 38
01:25 1021 30.15 851 25.13 12.1 53.8 54 3.2 37.8
01:30 1021 30.15 851 25.13 12.1 53.7 57 3.8 38.8
01:35 1021 30.15 851 25.13 12.1 53.8 55 3.4 38.2
01:40 1021 30.15 851 25.13 12.1 53.7 56 3.5 38.3
01:45 1022 30.18 851 25.13 12.1 53.7 56 3.6 38.5
01:50 1022 30.18 851 25.13 12 53.7 57 3.7 38.7
01:55 1022 30.18 851 25.13 12 53.7 57 3.8 38.9
02:00 1022 30.18 851 25.13 12 53.6 58 4 39.2
02:05 1022 30.18 851 25.13 11.9 53.4 58 4.1 39.3
02:10 1022 30.18 851 25.13 11.9 53.4 59 4.2 39.6
02:15 1022 30.18 851 25.13 11.8 53.2 60 4.4 39.9
02:20 1022 30.18 851 25.13 11.7 53.1 61 4.6 40.2
02:25 1022 30.18 851 25.13 11.7 53.1 62 4.8 40.7
02:30 1022 30.18 851 25.13 11.5 52.8 63 4.8 40.7
02:35 1022 30.18 851 25.13 11.5 52.6 65 5.1 41.2
02:40 1022 30.18 851 25.13 11.5 52.7 65 5.2 41.4
02:45 1022 30.18 851 25.13 11.5 52.7 65 5.3 41.5
02:50 1022 30.18 851 25.13 11.5 52.8 65 5.3 41.6
02:55 1022 30.18 851 25.13 11.4 52.6 68 5.7 42.3
03:00 1022 30.18 851 25.13 11.2 52.1 71 6.2 43.1
03:05 1022 30.18 851 25.13 10.8 51.4 74 6.4 43.5
03:10 1022 30.18 851 25.13 10.5 50.9 76 6.5 43.6
03:15 1022 30.18 851 25.13 10.4 50.7 78 6.7 44
03:20 1022 30.18 851 25.13 10.3 50.5 79 6.7 44.1
03:25 1022 30.18 851 25.13 10.1 50.3 81 7 44.6
03:30 1022 30.18 851 25.13 10 50.1 81 7 44.6
03:35 1022 30.18 851 25.13 9.9 49.8 83 7.1 44.8
03:40 1022 30.18 852 25.16 9.9 49.8 82 7.1 44.7
03:45 1022 30.18 852 25.16 9.9 49.7 81 6.8 44.2
03:50 1022 30.18 852 25.16 10 49.9 81 6.8 44.2
03:55 1022 30.18 851 25.13 9.9 49.9 81 6.8 44.2
04:00 1022 30.18 851 25.13 10 50 79 6.6 44
04:05 1022 30.18 851 25.13 10.1 50.1 79 6.6 43.9
04:10 1022 30.18 852 25.16 10.1 50.2 79 6.7 44
04:15 1022 30.18 852 25.16 10.1 50.1 80 6.8 44.3
04:20 1022 30.18 852 25.16 10.1 50.2 80 6.9 44.5
04:25 1022 30.18 852 25.16 10.2 50.3 80 6.9 44.3
04:30 1022 30.18 852 25.16 10.2 50.3 80 7 44.5
04:35 1022 30.18 852 25.16 10.2 50.3 79 6.8 44.2
04:40 1022 30.18 852 25.16 10.1 50.3 80 6.8 44.2
04:45 1022 30.18 852 25.16 10.1 50.2 80 6.8 44.2
04:50 1023 30.21 852 25.16 10.2 50.4 81 7.1 44.7
04:55 1023 30.21 852 25.16 10.3 50.5 81 7.2 45
05:00 1023 30.21 852 25.16 10.1 50.2 82 7.2 45
05:05 1023 30.21 852 25.16 10 50 84 7.5 45.5
05:10 1023 30.21 852 25.16 10 50 83 7.2 45
05:15 1023 30.21 852 25.16 10 49.9 82 7 44.7
05:20 1023 30.21 852 25.16 10 50 82 7.1 44.9
05:25 1023 30.21 852 25.16 10 50 82 7.1 44.8
05:30 1023 30.21 852 25.16 10 50 82 7.2 44.9
05:35 1023 30.21 852 25.16 10 50 83 7.2 45
05:40 1023 30.21 852 25.16 10 50 83 7.3 45.1
05:45 1023 30.21 852 25.16 10 50.1 83 7.3 45.1
05:50 1023 30.21 852 25.16 10 50.1 83 7.4 45.3
05:55 1023 30.21 852 25.16 10.1 50.2 82 7.1 44.8
06:00 1023 30.21 852 25.16 10.2 50.3 82 7.2 45
06:05 1023 30.21 852 25.16 10.3 50.6 81 7.3 45.1
06:10 1023 30.21 852 25.16 10.4 50.8 80 7.1 44.8
06:15 1023 30.21 852 25.16 10.5 50.8 79 7 44.6
06:20 1023 30.21 852 25.16 10.5 51 82 7.6 45.7
06:25 1023 30.21 852 25.16 10.6 51 83 7.9 46.2
06:30 1023 30.21 852 25.16 10.5 51 84 7.9 46.2
06:35 1023 30.21 852 25.16 10.4 50.8 84 7.9 46.3
06:40 1023 30.21 852 25.16 10.5 51 84 8 46.3
06:45 1023 30.21 852 25.16 10.7 51.2 82 7.8 46
06:50 1023 30.21 852 25.16 10.7 51.2 82 7.7 45.9
06:55 1023 30.21 852 25.16 10.7 51.2 81 7.5 45.5
07:00 1023 30.21 852 25.16 10.7 51.3 79 7.3 45.2
07:05 1023 30.21 852 25.16 10.7 51.3 79 7.2 44.9
07:10 1023 30.21 852 25.16 10.9 51.5 79 7.4 45.4
07:15 1023 30.21 852 25.16 11 51.7 81 7.8 46.1
07:20 1023 30.21 852 25.16 10.9 51.6 81 7.7 45.9
07:25 1023 30.21 852 25.16 11.1 52 79 7.6 45.6
07:30 1023 30.21 852 25.16 11.4 52.4 76 7.4 45.3
07:35 1023 30.21 852 25.16 11.4 52.5 76 7.3 45.2
07:40 1023 30.21 852 25.16 11.4 52.4 77 7.4 45.4
07:45 1023 30.21 852 25.16 11.6 53 75 7.4 45.3
07:50 1023 30.21 852 25.16 11.9 53.4 74 7.4 45.4
07:55 1023 30.21 852 25.16 12 53.6 74 7.5 45.5
08:00 1023 30.21 852 25.16 12.3 54.1 72 7.5 45.4
08:05 1023 30.21 852 25.16 12.6 54.7 68 7 44.5
08:10 1023 30.21 852 25.16 12.3 54.2 70 7.1 44.7
08:15 1023 30.21 852 25.16 12.1 53.8 72 7.1 44.8
08:20 1023 30.21 852 25.16 12.6 54.7 67 6.7 44
08:25 1023 30.21 852 25.16 12.9 55.3 68 7.3 45.1
08:30 1023 30.21 852 25.16 13.3 55.9 67 7.2 45
08:35 1023 30.21 852 25.16 13.5 56.3 66 7.2 45
08:40 1023 30.21 852 25.16 14.1 57.4 62 6.9 44.5
08:45 1023 30.21 852 25.16 14.1 57.4 61 6.8 44.2
08:50 1023 30.21 852 25.16 14.4 57.8 59 6.5 43.8
08:55 1023 30.21 852 25.16 14.3 57.8 60 6.7 44
09:00 1023 30.21 852 25.16 14.2 57.6 59 6.4 43.6
09:05 1023 30.21 852 25.16 14.3 57.7 60 6.7 44
09:10 1023 30.21 852 25.16 14.4 58 59 6.6 43.9
09:15 1023 30.21 852 25.16 14.6 58.2 57 6.4 43.4
09:20 1023 30.21 852 25.16 14.2 57.6 60 6.6 43.8
09:25 1023 30.21 852 25.16 14.1 57.4 58 6.1 42.9
09:30 1023 30.21 852 25.16 14.4 57.8 58 6.1 43.1
09:35 1023 30.21 852 25.16 14.2 57.6 58 6.1 42.9
09:40 1023 30.21 852 25.16 14.4 58 56 5.8 42.5
09:45 1023 30.21 852 25.16 14.5 58 57 6.2 43.1
09:50 1023 30.21 852 25.16 14.6 58.3 57 6.2 43.2
09:55 1023 30.21 853 25.19 14.7 58.4 57 6.3 43.4
10:00 1023 30.21 853 25.19 14.9 58.7 56 6.3 43.3
10:05 1023 30.21 853 25.19 14.9 58.9 55 6.1 43
10:10 1023 30.21 853 25.19 15.2 59.4 54 6.2 43.1
10:15 1023 30.21 853 25.19 15.2 59.3 54 6 42.8
10:20 1023 30.21 853 25.19 15.2 59.4 55 6.3 43.3
10:25 1023 30.21 853 25.19 15.2 59.4 52 5.5 42
10:30 1023 30.21 853 25.19 15.7 60.3 52 6 42.8
10:35 1023 30.21 853 25.19 15.7 60.2 52 6 42.9
10:40 1023 30.21 853 25.19 15.8 60.4 50 5.6 42.1
10:45 1023 30.21 853 25.19 16 60.7 52 6.1 43
10:50 1023 30.21 853 25.19 15.8 60.4 52 6.2 43.1
10:55 1023 30.21 853 25.19 15.7 60.2 53 6.2 43.2
11:00 1023 30.21 852 25.16 15.4 59.8 53 5.9 42.5
11:05 1023 30.21 852 25.16 16 60.9 51 6 42.7
11:10 1023 30.21 852 25.16 16.4 61.5 49 5.8 42.4
11:15 1023 30.21 852 25.16 16.3 61.4 49 5.8 42.5
11:20 1023 30.21 852 25.16 17 62.6 46 5.5 41.8
11:25 1023 30.21 852 25.16 17.7 63.9 43 5 41
11:30 1023 30.21 852 25.16 17.7 63.9 44 5.5 42
11:35 1023 30.21 852 25.16 17.5 63.5 43 5 41.1
11:40 1023 30.21 852 25.16 17.9 64.1 44 5.5 41.9
11:45 1023 30.21 852 25.16 17.3 63.2 44 5.1 41.1
11:50 1023 30.21 852 25.16 17.1 62.7 45 5.3 41.6
11:55 1023 30.21 852 25.16 17.1 62.7 45 5.3 41.5
12:00 1023 30.21 852 25.16 18.6 65.6 40 4.9 40.8
12:05 1023 30.21 852 25.16 19.4 66.9 38 4.9 40.8
12:10 1023 30.21 852 25.16 19.3 66.8 38 5 40.9
12:15 1023 30.21 852 25.16 18.9 66.1 41 5.5 41.9
12:20 1023 30.21 852 25.16 18.2 64.8 41 4.8 40.7
12:25 1023 30.21 852 25.16 18.5 65.3 42 5.6 42.1
12:30 1023 30.21 852 25.16 18.4 65.1 43 5.6 42.1
12:35 1023 30.21 852 25.16 18.4 65 44 6.2 43.1
12:40 1023 30.21 852 25.16 18.4 65 42 5.4 41.8
12:45 1023 30.21 852 25.16 19 66.2 41 5.5 41.9
12:50 1023 30.21 852 25.16 19.6 67.2 40 5.9 42.6
12:55 1023 30.21 852 25.16 19.9 67.8 37 5 41
13:00 1023 30.21 852 25.16 19.9 67.7 38 5.3 41.6
13:05 1022 30.18 852 25.16 19.7 67.4 36 4.4 39.9
13:10 1022 30.18 852 25.16 19.8 67.6 39 5.8 42.4
13:15 1022 30.18 852 25.16 18.9 66 39 4.6 40.3
13:20 1022 30.18 851 25.13 20.1 68.1 35 4.4 39.9
13:25 1022 30.18 851 25.13 20.3 68.5 38 5.6 42.1
13:30 1022 30.18 851 25.13 20.2 68.3 36 4.8 40.6
13:35 1022 30.18 851 25.13 20.8 69.4 35 4.8 40.7
13:40 1022 30.18 851 25.13 20.8 69.5 36 5.2 41.4
13:45 1022 30.18 851 25.13 20.8 69.4 34 4.7 40.5
13:50 1022 30.18 851 25.13 20.6 69.1 35 4.8 40.7
13:55 1022 30.18 851 25.13 20.6 69 33 3.8 38.9
14:00 1022 30.18 851 25.13 20.8 69.4 35 4.8 40.7
14:05 1022 30.18 851 25.13 20 68 36 4.5 40.1
14:10 1022 30.18 851 25.13 20.6 69 33 3.9 39.1
14:15 1022 30.18 851 25.13 20.9 69.7 34 4.7 40.4
14:20 1022 30.18 851 25.13 21.4 70.4 32 4.4 39.8
14:25 1022 30.18 851 25.13 21.8 71.3 31 4.2 39.6
14:30 1022 30.18 851 25.13 22.2 72 30 4 39.3
14:35 1022 30.18 851 25.13 21.9 71.4 31 4.3 39.7
14:40 1022 30.18 851 25.13 21.7 71.1 31 4.2 39.5
14:45 1021 30.15 851 25.13 21.9 71.3 31 4.1 39.4
14:50 1021 30.15 851 25.13 21.9 71.4 30 3.7 38.7
14:55 1021 30.15 851 25.13 22 71.7 30 3.9 39
15:00 1021 30.15 851 25.13 21 69.8 32 3.7 38.6
15:05 1021 30.15 850 25.1 21.4 70.6 30 3.3 37.9
15:10 1021 30.15 850 25.1 21.9 71.5 30 3.7 38.6
15:15 1021 30.15 850 25.1 22.2 71.9 29 3.3 38
15:20 1021 30.15 850 25.1 22.1 71.8 29 3.3 38
15:25 1021 30.15 850 25.1 22.2 71.9 28 2.9 37.2
15:30 1021 30.15 850 25.1 22.2 71.9 28 3.2 37.8
15:35 1021 30.15 850 25.1 22.2 72 29 3.3 37.9
15:40 1021 30.15 850 25.1 22 71.5 28 2.9 37.1
15:45 1021 30.15 850 25.1 21.6 70.9 29 3.2 37.8
15:50 1021 30.15 850 25.1 20.9 69.6 29 2.4 36.3
15:55 1021 30.15 850 25.1 21.7 71.1 28 2.7 36.8
16:00 1021 30.15 850 25.1 21.4 70.6 28 2.1 35.8
16:05 1021 30.15 850 25.1 22.1 71.7 27 2.4 36.2
16:10 1021 30.15 850 25.1 22.4 72.2 27 2.4 36.4
16:15 1021 30.15 850 25.1 22.3 72.2 26 2.1 35.8
16:20 1020 30.12 850 25.1 22.1 71.8 27 2.3 36.2
16:25 1020 30.12 850 25.1 21.9 71.4 26 1.5 34.7
16:30 1020 30.12 850 25.1 22.5 72.5 26 2.5 36.4
16:35 1020 30.12 850 25.1 22.9 73.2 27 2.9 37.2
16:40 1020 30.12 850 25.1 22.7 72.9 27 3 37.3
16:45 1020 30.12 850 25.1 22.8 73 26 2.5 36.6
16:50 1020 30.12 850 25.1 22.5 72.5 27 2.6 36.7
16:55 1020 30.12 850 25.1 22.4 72.2 26 2.4 36.3
17:00 1020 30.12 849 25.07 22.2 71.9 27 2.5 36.5
17:05 1020 30.12 849 25.07 21.7 71.1 27 2.4 36.3
17:10 1020 30.12 849 25.07 21.9 71.4 28 2.5 36.6
17:15 1020 30.12 849 25.07 22 71.6 27 2.3 36.1
17:20 1020 30.12 849 25.07 22.7 72.8 25 2 35.6
17:25 1020 30.12 849 25.07 22.8 73.1 26 2.4 36.3
17:30 1020 30.12 849 25.07 22.8 73 26 2.4 36.3
17:35 1020 30.12 849 25.07 22.6 72.7 28 3.2 37.8
17:40 1020 30.12 849 25.07 22.4 72.2 27 2.6 36.8
17:45 1020 30.12 849 25.07 22.1 71.7 27 2.6 36.7
17:50 1020 30.12 849 25.07 21.9 71.4 27 2.1 35.7
17:55 1020 30.12 849 25.07 21.9 71.4 26 1.9 35.4
18:00 1020 30.12 849 25.07 22 71.6 27 2.2 35.9
18:05 1020 30.12 849 25.07 21.8 71.3 28 2.8 37.1
18:10 1020 30.12 849 25.07 21.9 71.4 27 2.4 36.3
18:15 1020 30.12 849 25.07 21.9 71.4 27 2.5 36.5
18:20 1020 30.12 849 25.07 21.9 71.3 29 3 37.4
18:25 1020 30.12 849 25.07 21.4 70.5 29 3 37.4
18:30 1020 30.12 849 25.07 21.2 70.1 30 2.9 37.3
18:35 1020 30.12 849 25.07 20.9 69.6 31 3.2 37.8
18:40 1020 30.12 849 25.07 20.8 69.4 31 3.1 37.6
18:45 1020 30.12 849 25.07 20.7 69.3 32 3.5 38.3
18:50 1020 30.12 850 25.1 20.6 69.1 32 3.3 38
18:55 1020 30.12 850 25.1 20.5 68.8 32 3.5 38.3
19:00 1020 30.12 850 25.1 20.2 68.4 34 3.9 39.1
19:05 1020 30.12 850 25.1 20.2 68.3 33 3.8 38.8
19:10 1020 30.12 850 25.1 20.2 68.3 32 3.1 37.6
19:15 1020 30.12 850 25.1 20.2 68.4 33 3.7 38.6
19:20 1020 30.12 850 25.1 20.1 68.2 34 3.9 39.1
19:25 1020 30.12 850 25.1 20 68 34 3.7 38.6
19:30 1020 30.12 850 25.1 19.9 67.7 35 4.2 39.5
19:35 1020 30.12 850 25.1 19.6 67.2 37 4.5 40.1
19:40 1020 30.12 850 25.1 19.4 67 37 4.4 39.8
19:45 1020 30.12 850 25.1 19.4 66.9 36 4.2 39.6
19:50 1021 30.15 850 25.1 19.3 66.7 37 4.4 39.9
19:55 1021 30.15 850 25.1 19.2 66.5 38 4.6 40.3
20:00 1021 30.15 850 25.1 19 66.2 39 4.7 40.5
20:05 1021 30.15 850 25.1 18.8 65.9 38 4.2 39.6
20:10 1021 30.15 850 25.1 18.7 65.7 38 4.3 39.7
20:15 1021 30.15 850 25.1 18.6 65.5 38 4.2 39.6
20:20 1021 30.15 850 25.1 18.5 65.3 39 4.4 39.9
20:25 1021 30.15 850 25.1 18.3 64.9 43 5.5 42
20:30 1021 30.15 850 25.1 17.6 63.6 48 6.5 43.7
20:35 1021 30.15 850 25.1 16.9 62.4 50 6.5 43.7
20:40 1021 30.15 850 25.1 16.4 61.6 52 6.6 43.9
20:45 1021 30.15 850 25.1 16 60.8 51 6 42.8
20:50 1021 30.15 850 25.1 15.5 59.9 53 6.1 43
20:55 1021 30.15 850 25.1 15.3 59.5 56 6.7 44
21:00 1021 30.15 850 25.1 15.3 59.5 55 6.4 43.5
21:05 1021 30.15 850 25.1 15 59 53 5.7 42.2
21:10 1021 30.15 850 25.1 14.8 58.6 54 5.5 41.9
21:15 1021 30.15 850 25.1 14.7 58.4 54 5.6 42
21:20 1021 30.15 850 25.1 14.6 58.4 54 5.5 41.9
21:25 1021 30.15 850 25.1 14.5 58.1 55 5.6 42.1
21:30 1021 30.15 850 25.1 14.1 57.4 57 5.8 42.4
21:35 1021 30.15 850 25.1 13.8 56.8 57 5.5 41.9
21:40 1021 30.15 850 25.1 13.6 56.5 58 5.5 41.9
21:45 1021 30.15 850 25.1 13.5 56.4 56 5 41
21:50 1021 30.15 850 25.1 13.8 56.8 54 4.8 40.7
21:55 1021 30.15 850 25.1 13.9 57.1 52 4.4 39.9
22:00 1021 30.15 850 25.1 13.9 57 53 4.6 40.3
22:05 1021 30.15 850 25.1 13.8 56.9 52 4.1 39.5
22:10 1021 30.15 850 25.1 13.9 57 52 4.3 39.8
22:15 1021 30.15 850 25.1 14.1 57.4 51 4.2 39.6
22:20 1021 30.15 850 25.1 14.1 57.4 51 4.3 39.7
22:25 1021 30.15 850 25.1 13.9 56.9 53 4.4 40
22:30 1021 30.15 850 25.1 13.5 56.3 54 4.5 40.1
22:35 1021 30.15 850 25.1 13.2 55.8 54 4.3 39.7
22:40 1021 30.15 850 25.1 13.1 55.6 56 4.5 40.1
22:45 1021 30.15 850 25.1 12.8 55.1 57 4.5 40.2
22:50 1021 30.15 850 25.1 12.7 54.8 57 4.5 40
22:55 1021 30.15 851 25.13 12.7 54.8 56 4.3 39.8
23:00 1021 30.15 851 25.13 12.9 55.1 55 4.2 39.5
23:05 1021 30.15 850 25.1 13 55.4 55 4.3 39.7
23:10 1021 30.15 850 25.1 13.1 55.6 54 4.2 39.6
23:15 1021 30.15 850 25.1 13.1 55.6 55 4.4 39.9
23:20 1021 30.15 850 25.1 13.1 55.5 55 4.3 39.8
23:25 1021 30.15 850 25.1 12.9 55.3 56 4.3 39.8
23:30 1021 30.15 851 25.13 12.7 54.9 57 4.4 39.9
23:35 1021 30.15 851 25.13 12.4 54.3 58 4.5 40.1
23:40 1021 30.15 851 25.13 12.2 53.9 59 4.4 39.9
23:45 1021 30.15 851 25.13 12.5 54.4 57 4.2 39.5
23:50 1021 30.15 851 25.13 12.5 54.6 57 4.3 39.8
23:55 1021 30.15 851 25.13 12.4 54.2 58 4.3 39.7
24:00 1021 30.15 851 25.13 12.3 54.2 58 4.3 39.8